Latest Weather Observations for Goulburn Airport

IDN60801

Issued at 1:42 pm EST Saturday 8 August 2020 (issued every 10 minutes, with the page automatically refreshed every 10 minutes)

About weather observations | Map of weather stations | Latest weather observations for NSW | Other Formats
Station Details ID: 070330 Name: GOULBURN AIRPORT AWS Lat: -34.81 Lon: 149.73 Height: 640.0 m
Data from the previous 72 hours. | See also: Recent months at Goulburn Airport
Date/Time
EST
Temp
°C
App
Temp
°C
Dew
Point
°C
Rel
Hum
%
Delta-T
°C
Wind Press
QNH
hPa
Press
MSL
hPa
Rain since
9am
mm
Dir  Spd
km/h
Gust
km/h
Spd
kts
Gust
kts
08/01:30pm 10.3 6.2 10.1 99 0.1 SE 22 30 12 16 1011.7 1012.4 1.4
08/01:00pm 10.2 6.7 10.1 99 0.1 SSE 19 28 10 15 1012.2 1012.9 1.2
08/12:46pm 10.2 7.0 10.1 99 0.1 SSE 17 24 9 13 1012.4 1013.1 0.8
08/12:30pm 10.0 6.4 9.9 99 0.1 SSE 19 22 10 12 1012.8 1013.6 0.6
08/12:21pm 10.2 7.0 10.1 99 0.1 SSE 17 20 9 11 1012.9 1013.7 0.2
08/12:08pm 10.5 8.2 10.3 99 0.1 SSE 13 17 7 9 1013.1 1013.9 0.2
08/12:00pm 10.7 8.0 10.5 99 0.1 SE 15 20 8 11 1013.4 1014.1 0.2
08/11:58am 10.8 7.8 10.6 99 0.1 SE 17 20 9 11 1013.5 1014.2 0.2
08/11:39am 10.7 7.3 10.5 99 0.1 SE 19 24 10 13 1013.7 1014.4 0.2
08/11:30am 10.9 7.9 10.7 99 0.1 ESE 17 20 9 11 1013.9 1014.6 0.2
08/11:20am 10.8 7.8 10.6 99 0.1 SE 17 22 9 12 1014.0 1014.7 0.2
08/11:00am 10.4 6.9 10.2 99 0.1 SE 19 24 10 13 1014.2 1015.0 0.2
08/10:30am 9.2 5.2 9.1 99 0.1 SE 20 28 11 15 1014.9 1015.6 0.2
08/10:00am 9.0 5.2 8.9 99 0.1 SE 19 22 10 12 1015.1 1015.8 0.0
08/09:30am 8.8 4.0 8.7 99 0.1 SSE 24 32 13 17 1015.2 1015.9 0.0
08/09:25am 8.9 4.1 8.8 99 0.1 SSE 24 28 13 15 1015.1 1015.8 0.0
08/09:00am 8.8 4.7 8.7 99 0.1 SE 20 28 11 15 1015.2 1015.9 21.0
08/08:30am 8.5 4.5 8.4 99 0.0 SSE 19 22 10 12 1015.3 1016.0 21.0
08/08:00am 8.3 4.1 8.2 99 0.0 SE 20 26 11 14 1015.4 1016.1 20.8
08/07:30am 8.2 4.9 8.1 99 0.0 SE 15 20 8 11 1015.4 1016.1 20.6
08/07:00am 8.1 5.2 8.0 99 0.0 SE 13 20 7 11 1015.2 1015.9 20.6
08/06:30am 7.9 4.9 7.8 99 0.0 SE 13 19 7 10 1015.1 1015.8 20.6
08/06:00am 7.8 5.6 7.7 99 0.0 SE 9 17 5 9 1015.0 1015.7 20.4
08/05:30am 7.7 5.8 7.6 99 0.0 NE 7 11 4 6 1014.9 1015.6 20.4
08/05:16am 7.6 4.9 7.5 99 0.0 SE 11 17 6 9 1014.7 1015.5 20.4
08/05:00am 7.6 4.6 7.5 99 0.0 SE 13 22 7 12 1014.6 1015.4 20.4
08/04:42am 7.7 3.3 7.6 99 0.0 SE 20 28 11 15 1014.5 1015.3 20.2
08/04:30am 7.7 3.0 7.6 99 0.0 SE 22 30 12 16 1014.4 1015.2 20.2
08/04:00am 7.7 3.0 7.6 99 0.0 SE 22 32 12 17 1014.5 1015.3 19.8
08/03:30am 7.7 2.2 7.6 99 0.0 SE 26 33 14 18 1014.4 1015.2 19.2
08/03:09am 7.8 2.3 7.7 99 0.0 ESE 26 35 14 19 1014.5 1015.3 18.4
08/03:06am 7.8 2.7 7.7 99 0.0 ESE 24 35 13 19 1014.6 1015.4 18.4
08/03:00am 7.8 2.3 7.7 99 0.0 SE 26 35 14 19 1014.5 1015.3 18.4
08/02:30am 7.8 1.9 7.7 99 0.0 SE 28 35 15 19 1014.6 1015.4 18.4
08/02:00am 7.8 2.3 7.7 99 0.0 SE 26 35 14 19 1015.0 1015.7 18.2
08/01:30am 7.6 2.8 7.5 99 0.0 SE 22 35 12 19 1015.3 1016.0 18.0
08/01:00am 7.6 3.4 7.5 99 0.0 ESE 19 24 10 13 1015.6 1016.4 17.8
08/12:30am 7.6 2.8 7.5 99 0.0 SE 22 30 12 16 1015.9 1016.7 17.6
08/12:05am 7.5 2.3 7.4 99 0.0 ESE 24 33 13 18 1016.0 1016.8 17.6
08/12:00am 7.6 2.5 7.5 99 0.0 SE 24 33 13 18 1016.0 1016.8 17.6
 
Date/Time
EST
Temp
°C
App
Temp
°C
Dew
Point
°C
Rel
Hum
%
Delta-T
°C
Wind Press
QNH
hPa
Press
MSL
hPa
Rain since
9am
mm
Dir  Spd
km/h
Gust
km/h
Spd
kts
Gust
kts
07/11:52pm 7.6 2.5 7.5 99 0.0 SE 24 32 13 17 1016.1 1016.9 17.6
07/11:30pm 7.5 2.7 7.4 99 0.0 SE 22 30 12 16 1016.4 1017.2 17.4
07/11:28pm 7.6 3.2 7.5 99 0.0 ESE 20 30 11 16 1016.4 1017.2 17.4
07/11:15pm 7.7 3.3 7.6 99 0.0 ESE 20 28 11 15 1016.7 1017.4 17.2
07/11:08pm 7.6 3.4 7.5 99 0.0 ESE 19 22 10 12 1016.7 1017.4 17.2
07/11:00pm 7.6 3.4 7.5 99 0.0 SE 19 24 10 13 1016.8 1017.6 17.0
07/10:54pm 7.7 3.3 7.6 99 0.0 ESE 20 30 11 16 1016.8 1017.6 17.0
07/10:30pm 7.9 3.6 7.8 99 0.0 ESE 20 28 11 15 1016.8 1017.6 17.0
07/10:27pm 7.8 3.5 7.7 99 0.0 ESE 20 28 11 15 1016.8 1017.6 17.0
07/10:01pm 7.8 3.1 7.7 99 0.0 ESE 22 30 12 16 1017.1 1017.9 17.0
07/10:00pm 7.8 3.1 7.7 99 0.0 ESE 22 32 12 17 1017.1 1017.9 17.0
07/09:30pm 7.9 2.8 7.8 99 0.0 E 24 30 13 16 1017.4 1018.2 16.6
07/09:01pm 7.6 4.2 7.5 99 0.0 ESE 15 24 8 13 1017.3 1018.1 16.6
07/09:00pm 7.6 4.2 7.5 99 0.0 ESE 15 24 8 13 1017.3 1018.1 16.6
07/08:43pm 7.4 3.9 7.3 99 0.0 ESE 15 19 8 10 1017.2 1018.0 16.4
07/08:30pm 7.3 4.2 7.2 99 0.0 ESE 13 17 7 9 1017.4 1018.2 16.4
07/08:00pm 7.6 3.4 7.5 99 0.0 E 19 24 10 13 1017.5 1018.3 15.8
07/07:30pm 7.5 2.3 7.4 99 0.0 E 24 35 13 19 1017.3 1018.1 14.8
07/07:00pm 7.4 2.6 7.3 99 0.0 ESE 22 30 12 16 1016.9 1017.7 14.6
07/06:30pm 7.4 2.2 7.3 99 0.0 ESE 24 35 13 19 1016.7 1017.4 13.6
07/06:00pm 7.3 2.5 7.2 99 0.0 ESE 22 26 12 14 1016.4 1017.2 12.6
07/05:30pm 7.3 2.1 7.2 99 0.0 E 24 37 13 20 1016.1 1016.9 12.2
07/05:00pm 7.3 1.3 7.2 99 0.0 E 28 41 15 22 1016.1 1016.9 11.6
07/04:30pm 7.3 1.3 7.2 99 0.0 E 28 41 15 22 1016.6 1017.3 11.0
07/04:00pm 7.2 0.8 7.1 99 0.0 E 30 43 16 23 1016.7 1017.4 10.4
07/03:30pm 7.3 1.3 7.2 99 0.0 E 28 35 15 19 1017.1 1017.9 10.2
07/03:00pm 7.1 1.5 7.0 99 0.0 ESE 26 37 14 20 1017.5 1018.3 9.4
07/02:30pm 7.2 1.6 7.1 99 0.0 E 26 35 14 19 1017.9 1018.7 9.0
07/02:00pm 7.3 2.5 7.2 99 0.0 ESE 22 30 12 16 1018.3 1019.1 8.0
07/01:30pm 7.3 2.9 7.2 99 0.0 E 20 30 11 16 1018.8 1019.6 7.0
07/01:00pm 7.2 2.7 7.1 99 0.0 E 20 28 11 15 1018.9 1019.7 6.0
07/12:30pm 7.2 2.9 7.1 99 0.0 E 19 26 10 14 1019.5 1020.4 5.0
07/12:00pm 7.2 2.7 7.1 99 0.0 E 20 28 11 15 1020.1 1020.9 3.8
07/11:57am 7.2 2.7 7.1 99 0.0 ESE 20 28 11 15 1020.2 1021.0 3.8
07/11:43am 7.0 2.7 6.9 99 0.0 ESE 19 26 10 14 1020.5 1021.3 3.4
07/11:38am 7.0 2.5 6.9 99 0.0 ESE 20 26 11 14 1020.5 1021.3 3.2
07/11:30am 6.9 2.4 6.8 99 0.0 ESE 20 26 11 14 1020.7 1021.5 2.8
07/11:16am 6.9 1.6 6.8 99 0.0 ESE 24 33 13 18 1020.9 1021.8 2.6
07/11:00am 6.8 2.2 6.7 99 0.0 ESE 20 30 11 16 1020.9 1021.8 2.2
07/10:30am 6.4 1.8 6.3 99 0.0 ESE 20 26 11 14 1021.1 1022.0 2.0
07/10:00am 6.0 2.2 5.9 99 0.0 SE 15 20 8 11 1021.3 1022.2 1.2
07/09:41am 5.7 1.5 5.6 99 0.0 SE 17 20 9 11 1021.3 1022.2 1.0
07/09:35am 5.5 2.0 5.4 99 0.0 SE 13 19 7 10 1021.4 1022.3 0.8
07/09:30am 5.5 2.0 5.4 99 0.0 ESE 13 15 7 8 1021.6 1022.4 0.8
07/09:00am 5.2 2.8 5.1 99 0.0 E 7 9 4 5 1022.4 1023.3 3.0
07/08:30am 4.7 2.4 4.6 99 0.0 E 6 9 3 5 1022.3 1023.2 2.0
07/08:00am 4.4 0.7 4.3 99 0.0 SE 13 15 7 8 1021.8 1022.6 1.4
07/07:48am 4.4 0.7 4.3 99 0.0 SE 13 19 7 10 1021.9 1022.7 1.0
07/07:30am 4.3 0.2 4.2 99 0.0 SE 15 19 8 10 1022.0 1022.8 0.6
07/07:15am 4.2 0.4 4.1 99 0.0 ESE 13 19 7 10 1022.0 1022.8 0.4
07/07:00am 4.1 -0.1 4.0 99 0.0 ESE 15 20 8 11 1022.1 1023.0 0.2
07/06:42am 4.2 0.1 4.1 99 0.0 ESE 15 20 8 11 1022.1 1023.0 0.0
07/06:30am 3.9 1.4 3.8 99 0.0 E 6 9 3 5 1022.2 1023.1 0.0
07/06:13am 3.9 0.1 3.8 99 0.0 ESE 13 17 7 9 1022.3 1023.2 0.0
07/06:00am 4.1 -0.6 3.2 94 0.4 ESE 17 20 9 11 1021.9 1022.7 0.0
07/05:30am 3.8 0.5 2.3 90 0.6 SE 9 11 5 6 1021.8 1022.6 0.0
07/05:06am 3.8 -0.7 2.0 88 0.7 ESE 15 20 8 11 1021.6 1022.4 0.0
07/05:00am 3.8 -1.1 2.0 88 0.7 ESE 17 20 9 11 1021.6 1022.4 0.0
07/04:30am 3.4 -0.8 1.8 89 0.7 SE 13 17 7 9 1021.0 1021.9 0.0
07/04:00am 2.8 -0.4 1.0 88 0.7 SE 7 11 4 6 1021.0 1021.9 0.0
07/03:30am 3.0 -0.1 1.1 87 0.8 SSE 7 13 4 7 1020.9 1021.8 0.0
07/03:00am 2.4 -0.5 1.2 92 0.5 SSE 6 7 3 4 1021.2 1022.1 0.0
07/02:30am 2.3 -0.7 1.7 96 0.2 SE 7 9 4 5 1020.9 1021.8 0.0
07/02:00am 0.6 -2.4 0.5 99 0.0 SSE 6 7 3 4 1021.1 1022.0 0.0
07/01:30am -0.3 -3.2 -1.0 95 0.2 ESE 4 9 2 5 1021.3 1022.2 0.0
07/01:00am 0.3 -2.5 -0.3 96 0.2 SSE 4 7 2 4 1021.7 1022.5 0.0
07/12:30am 0.5 -2.8 -0.1 96 0.2 SW 7 9 4 5 1021.9 1022.7 0.0
07/12:00am 0.2 -3.2 -0.4 96 0.2 S 7 9 4 5 1021.9 1022.7 0.0
 
Date/Time
EST
Temp
°C
App
Temp
°C
Dew
Point
°C
Rel
Hum
%
Delta-T
°C
Wind Press
QNH
hPa
Press
MSL
hPa
Rain since
9am
mm
Dir  Spd
km/h
Gust
km/h
Spd
kts
Gust
kts
06/11:30pm 0.4 -2.4 -0.6 93 0.4 SE 4 7 2 4 1021.9 1022.7 0.0
06/11:00pm 0.8 -1.2 0.2 96 0.2 CALM 0 4 0 2 1022.1 1023.0 0.0
06/10:30pm -0.4 -3.7 -1.2 94 0.3 SSE 6 9 3 5 1022.1 1023.0 0.0
06/10:00pm -0.4 -3.1 -2.4 86 0.7 E 2 7 1 4 1022.1 1023.0 0.0
06/09:30pm -0.3 -3.4 -2.7 84 0.8 SE 4 9 2 5 1021.7 1022.5 0.0
06/09:00pm -0.8 -3.2 -3.3 83 0.8 CALM 0 0 0 0 1021.2 1022.1 0.0
06/08:30pm -0.7 -3.0 -2.4 88 0.6 CALM 0 6 0 3 1021.6 1022.4 0.0
06/08:00pm -1.4 -3.8 -3.3 87 0.6 CALM 0 2 0 1 1021.4 1022.3 0.0
06/07:30pm -0.3 -4.3 -1.9 89 0.6 SE 9 13 5 7 1020.7 1021.5 0.0
06/07:00pm 1.0 -1.1 -0.9 87 0.7 CALM 0 0 0 0 1020.2 1021.0 0.0
06/06:30pm 0.9 -1.4 -2.0 81 1.1 CALM 0 0 0 0 1019.7 1020.6 0.0
06/06:00pm 2.0 -0.3 -2.0 75 1.5 CALM 0 0 0 0 1019.2 1020.0 0.0
06/05:30pm 3.8 1.5 -2.2 65 2.2 CALM 0 0 0 0 1018.6 1019.4 0.0
06/05:00pm 8.3 6.1 -1.8 49 4.0 CALM 0 0 0 0 1018.4 1019.2 0.0
06/04:30pm 9.6 7.3 -2.3 43 4.7 CALM 0 0 0 0 1018.1 1019.0 0.0
06/04:00pm 10.3 8.0 -2.0 42 4.9 CALM 0 0 0 0 1017.8 1018.6 0.0
06/03:30pm 9.1 5.8 -1.6 47 4.3 S 6 7 3 4 1017.6 1018.4 0.0
06/03:00pm 9.9 6.9 -2.1 43 4.8 NNW 4 11 2 6 1017.5 1018.3 0.0
06/02:30pm 9.8 5.9 -1.6 45 4.6 WNW 9 15 5 8 1017.4 1018.2 0.0
06/02:00pm 9.8 5.6 -1.0 47 4.4 W 11 20 6 11 1017.3 1018.1 0.0
06/01:30pm 9.8 4.5 -0.7 48 4.3 W 17 22 9 12 1017.4 1018.2 0.0
06/01:00pm 8.8 3.6 -0.2 53 3.7 WNW 17 24 9 13 1017.6 1018.4 0.0
06/12:30pm 8.6 4.1 -0.2 54 3.6 W 13 22 7 12 1018.0 1018.8 0.0
06/12:00pm 7.6 1.5 -2.1 50 3.8 W 20 26 11 14 1018.7 1019.5 0.0
06/11:30am 6.6 0.7 -0.8 59 2.9 W 20 28 11 15 1018.8 1019.6 0.0
06/11:00am 5.4 -0.9 -1.1 63 2.5 W 22 28 12 15 1019.2 1020.0 0.0
06/10:30am 4.9 -2.3 -1.8 62 2.5 WNW 26 33 14 18 1019.3 1020.1 0.0
06/10:00am 5.7 -1.0 -1.2 61 2.7 WNW 24 33 13 18 1019.1 1019.9 0.0
06/09:30am 4.9 -2.5 -0.9 66 2.2 WNW 28 33 15 18 1018.8 1019.6 0.0
06/09:00am 4.1 -1.8 -0.7 71 1.8 WNW 20 28 11 15 1018.7 1019.5 0.0
06/08:30am 3.3 -2.3 -0.2 78 1.4 WNW 19 24 10 13 1018.1 1019.0 0.0
06/08:00am 1.9 -4.0 -0.8 82 1.0 WNW 20 26 11 14 1017.6 1018.4 0.0
06/07:30am 0.2 -3.7 -1.5 88 0.6 WNW 9 13 5 7 1017.5 1018.3 0.0
06/07:00am -0.4 -5.1 -1.7 91 0.4 NW 13 20 7 11 1016.7 1017.4 0.0
06/06:30am -0.4 -5.4 -1.2 94 0.3 NW 15 20 8 11 1016.2 1017.0 0.0
06/06:00am -0.3 -6.2 -1.1 94 0.3 NW 20 24 11 13 1015.7 1016.5 0.0
06/05:30am 0.4 -5.9 -0.7 92 0.4 NW 22 30 12 16 1015.4 1016.1 0.0
06/05:00am 0.4 -5.9 -0.7 92 0.4 WNW 22 26 12 14 1015.3 1016.0 0.0
06/04:30am 0.7 -5.5 -0.6 91 0.5 WNW 22 30 12 16 1015.3 1016.0 0.0
06/04:00am 0.9 -4.4 -0.7 89 0.6 WNW 17 22 9 12 1015.3 1016.0 0.0
06/03:30am 0.9 -4.8 -0.7 89 0.6 NW 19 24 10 13 1015.5 1016.3 0.0
06/03:00am 1.1 -5.2 -0.7 88 0.7 WNW 22 28 12 15 1015.6 1016.4 0.0
06/02:30am 1.7 -3.6 -0.4 86 0.8 WNW 17 24 9 13 1015.8 1016.6 0.0
06/02:00am 2.0 -4.6 -0.1 86 0.8 WNW 24 32 13 17 1015.4 1016.1 0.0
06/01:30am 2.0 -3.7 -0.4 84 0.9 WNW 19 26 10 14 1015.6 1016.4 0.0
06/01:00am 2.7 -2.9 -0.1 82 1.1 WNW 19 32 10 17 1015.8 1016.6 0.0
06/12:30am 1.8 -3.1 -0.6 84 0.9 NW 15 20 8 11 1015.9 1016.7 0.0
06/12:00am 2.3 -3.0 -0.3 83 1.0 WNW 17 20 9 11 1015.7 1016.5 0.0
 
Date/Time
EST
Temp
°C
App
Temp
°C
Dew
Point
°C
Rel
Hum
%
Delta-T
°C
Wind Press
QNH
hPa
Press
MSL
hPa
Rain since
9am
mm
Dir  Spd
km/h
Gust
km/h
Spd
kts
Gust
kts
05/11:30pm 2.8 -3.7 0.0 82 1.1 WNW 24 32 13 17 1015.4 1016.1 0.0
05/11:00pm 3.1 -4.2 0.0 80 1.2 WNW 28 35 15 19 1015.4 1016.1 0.0
05/10:30pm 3.4 -3.5 0.1 79 1.3 WNW 26 39 14 21 1015.6 1016.4 0.0
05/10:00pm 3.3 -3.6 0.2 80 1.2 WNW 26 39 14 21 1015.6 1016.4 0.0
05/09:30pm 3.5 -3.7 0.4 80 1.2 WNW 28 35 15 19 1015.4 1016.1 0.0
05/09:00pm 2.8 -4.1 0.0 82 1.1 WNW 26 35 14 19 1015.3 1016.0 0.0
05/08:30pm 3.4 -3.9 0.3 80 1.2 WNW 28 33 15 18 1015.2 1015.9 0.0
05/08:00pm 3.7 -3.2 0.4 79 1.3 W 26 41 14 22 1015.0 1015.7 0.0
05/07:30pm 3.5 -3.4 0.0 78 1.4 W 26 33 14 18 1014.5 1015.3 0.0
05/07:00pm 4.0 -4.7 -0.6 72 1.8 WNW 35 48 19 26 1014.4 1015.2 0.0
05/06:30pm 4.2 -3.1 -0.2 73 1.7 WNW 28 39 15 21 1014.5 1015.3 0.0
05/06:00pm 4.4 -3.8 -0.8 69 2.0 W 32 43 17 23 1014.1 1014.9 0.0
05/05:30pm 4.7 -3.1 -0.5 69 2.0 W 30 41 16 22 1013.6 1014.3 0.0
05/05:00pm 5.5 -2.2 -0.1 67 2.2 W 30 44 16 24 1013.6 1014.3 0.0
05/04:30pm 6.7 -0.2 -0.1 62 2.7 WNW 26 39 14 21 1013.3 1014.0 0.0
05/04:00pm 7.0 -0.8 -0.7 58 3.1 WNW 30 44 16 24 1012.5 1013.2 0.0
05/03:36pm 7.4 -1.2 -0.1 59 3.0 WNW 35 54 19 29 1012.2 1012.9 0.0
05/03:30pm 7.5 -1.1 0.0 59 3.1 WNW 35 52 19 28 1012.1 1012.8 0.0
05/03:04pm 7.3 -2.9 -0.2 59 3.0 WNW 43 61 23 33 1011.9 1012.6 0.0
05/03:00pm 7.2 -3.2 -0.3 59 3.0 WNW 44 61 24 33 1011.8 1012.5 0.0
05/02:30pm 7.5 -2.6 0.3 60 3.0 WNW 43 61 23 33 1011.7 1012.4 0.0
05/02:04pm 7.7 -0.8 0.7 61 2.9 WNW 35 54 19 29 1011.8 1012.5 0.0
05/02:00pm 7.3 -2.5 -0.2 59 3.0 WNW 41 56 22 30 1011.8 1012.5 0.0

Other formats

Comma delimited format used in spreadsheet applications
http://www.bom.gov.au/fwo/IDN60801/IDN60801.95716.axf

JavaScript Object Notation format (JSON) in row-major order
http://www.bom.gov.au/fwo/IDN60801/IDN60801.95716.json

Data quality

Most of these data are generated automatically and are frequently updated. Quality checks on data are not normally performed. It is possible for incorrect values to appear. Refer to information at About Latest Weather Observations and please check the disclaimer before using these data.